createdAt,value
2018-02-25T00:00:06.068Z,1029.71
2018-02-25T00:01:06.511Z,1029.75
2018-02-25T00:02:06.903Z,1029.73
2018-02-25T00:03:07.310Z,1029.73
2018-02-25T00:04:07.736Z,1029.71
2018-02-25T00:05:08.149Z,1029.72
2018-02-25T00:06:08.559Z,1029.68
2018-02-25T00:07:08.970Z,1029.70
2018-02-25T00:08:09.385Z,1029.70
2018-02-25T00:09:09.818Z,1029.67
2018-02-25T00:10:10.216Z,1029.66
2018-02-25T00:11:10.629Z,1029.64
2018-02-25T00:12:11.044Z,1029.64
2018-02-25T00:13:11.459Z,1029.61
2018-02-25T00:14:11.889Z,1029.62
2018-02-25T00:15:12.291Z,1029.60
2018-02-25T00:16:12.702Z,1029.59
2018-02-25T00:17:13.119Z,1029.57
2018-02-25T00:18:13.534Z,1029.58
2018-02-25T00:19:13.947Z,1029.58
2018-02-25T00:20:14.363Z,1029.60
2018-02-25T00:21:14.780Z,1029.59
2018-02-25T00:22:15.192Z,1029.61
2018-02-25T00:23:15.608Z,1029.64
2018-02-25T00:24:16.020Z,1029.61
2018-02-25T00:25:16.438Z,1029.59
2018-02-25T00:26:16.851Z,1029.64
2018-02-25T00:27:17.277Z,1029.62
2018-02-25T00:28:17.685Z,1029.61
2018-02-25T00:29:18.097Z,1029.62
2018-02-25T00:30:18.512Z,1029.63
2018-02-25T00:31:18.933Z,1029.61
2018-02-25T00:32:19.342Z,1029.58
2018-02-25T00:33:19.774Z,1029.59
2018-02-25T00:34:20.184Z,1029.57
2018-02-25T00:35:20.659Z,1029.57
2018-02-25T00:36:21.002Z,1029.58
2018-02-25T00:37:21.425Z,1029.56
2018-02-25T00:38:21.845Z,1029.61
2018-02-25T00:39:22.249Z,1029.58
2018-02-25T00:40:22.659Z,1029.57
2018-02-25T00:41:23.085Z,1029.58
2018-02-25T00:42:23.497Z,1029.56
2018-02-25T00:43:23.905Z,1029.58
2018-02-25T00:44:24.317Z,1029.56
2018-02-25T00:45:24.744Z,1029.59
2018-02-25T00:46:25.155Z,1029.59
2018-02-25T00:47:25.578Z,1029.56
2018-02-25T00:48:25.988Z,1029.56
2018-02-25T00:49:26.390Z,1029.55
2018-02-25T00:50:26.829Z,1029.51
2018-02-25T00:51:27.223Z,1029.58
2018-02-25T00:52:27.640Z,1029.55
2018-02-25T00:53:28.059Z,1029.53
2018-02-25T00:54:28.465Z,1029.59
2018-02-25T00:55:28.891Z,1029.55
2018-02-25T00:56:29.298Z,1029.53
2018-02-25T00:57:29.713Z,1029.54
2018-02-25T00:58:30.128Z,1029.61
2018-02-25T00:59:30.545Z,1029.52
2018-02-25T01:00:30.960Z,1029.53
2018-02-25T01:01:31.372Z,1029.55
2018-02-25T01:02:31.791Z,1029.53
2018-02-25T01:03:32.203Z,1029.52
2018-02-25T01:04:32.618Z,1029.50
2018-02-25T01:05:33.032Z,1029.52
2018-02-25T01:06:33.450Z,1029.54
2018-02-25T01:07:33.865Z,1029.50
2018-02-25T01:08:34.275Z,1029.51
2018-02-25T01:09:34.718Z,1029.55
2018-02-25T01:10:35.117Z,1029.49
2018-02-25T01:11:35.536Z,1029.48
2018-02-25T01:12:35.939Z,1029.48
2018-02-25T01:13:36.358Z,1029.49
2018-02-25T01:14:36.766Z,1029.45
2018-02-25T01:15:37.191Z,1029.48
2018-02-25T01:16:37.599Z,1029.47
2018-02-25T01:17:38.011Z,1029.50
2018-02-25T01:18:38.431Z,1029.44
2018-02-25T01:19:38.836Z,1029.47
2018-02-25T01:20:39.252Z,1029.45
2018-02-25T01:21:39.667Z,1029.44
2018-02-25T01:22:40.081Z,1029.41
2018-02-25T01:23:40.497Z,1029.43
2018-02-25T01:24:40.910Z,1029.38
2018-02-25T01:25:41.331Z,1029.38
2018-02-25T01:26:41.740Z,1029.38
2018-02-25T01:27:42.154Z,1029.40
2018-02-25T01:28:42.571Z,1029.41
2018-02-25T01:29:42.985Z,1029.42
2018-02-25T01:30:43.403Z,1029.40
2018-02-25T01:31:43.822Z,1029.38
2018-02-25T01:32:44.238Z,1029.39
2018-02-25T01:33:44.643Z,1029.39
2018-02-25T01:34:45.061Z,1029.43
2018-02-25T01:35:45.469Z,1029.38
2018-02-25T01:36:45.904Z,1029.39
2018-02-25T01:37:46.307Z,1029.43
2018-02-25T01:38:46.717Z,1029.45
2018-02-25T01:39:47.135Z,1029.35
2018-02-25T01:40:47.544Z,1029.41
2018-02-25T01:41:47.959Z,1029.42
2018-02-25T01:42:48.374Z,1029.44
2018-02-25T01:43:48.801Z,1029.42
2018-02-25T01:44:49.202Z,1029.43
2018-02-25T01:45:49.623Z,1029.45
2018-02-25T01:46:50.034Z,1029.46
2018-02-25T01:47:50.449Z,1029.43
2018-02-25T01:48:50.864Z,1029.44
2018-02-25T01:49:51.276Z,1029.42
2018-02-25T01:50:51.692Z,1029.40
2018-02-25T01:51:52.106Z,1029.40
2018-02-25T01:52:52.524Z,1029.41
2018-02-25T01:53:52.934Z,1029.40
2018-02-25T01:54:53.347Z,1029.41
2018-02-25T01:55:53.763Z,1029.39
2018-02-25T01:56:54.176Z,1029.39
2018-02-25T01:57:54.594Z,1029.41
2018-02-25T01:58:55.008Z,1029.36
2018-02-25T01:59:55.424Z,1029.36
2018-02-25T02:00:55.832Z,1029.38
2018-02-25T02:01:56.260Z,1029.34
2018-02-25T02:02:56.663Z,1029.38
2018-02-25T02:03:57.076Z,1029.35
2018-02-25T02:04:57.494Z,1029.38
2018-02-25T02:05:57.905Z,1029.36
2018-02-25T02:06:58.316Z,1029.36
2018-02-25T02:07:58.735Z,1029.38
2018-02-25T02:08:59.148Z,1029.37
2018-02-25T02:09:59.565Z,1029.37
2018-02-25T02:10:59.976Z,1029.36
2018-02-25T02:12:00.394Z,1029.40
2018-02-25T02:13:00.808Z,1029.38
2018-02-25T02:14:01.228Z,1029.40
2018-02-25T02:15:01.632Z,1029.35
2018-02-25T02:16:02.045Z,1029.36
2018-02-25T02:17:02.459Z,1029.37
2018-02-25T02:18:02.879Z,1029.42
2018-02-25T02:19:03.306Z,1029.42
2018-02-25T02:20:03.701Z,1029.46
2018-02-25T02:21:04.118Z,1029.44
2018-02-25T02:22:04.531Z,1029.42
2018-02-25T02:23:04.981Z,1029.43
2018-02-25T02:24:05.362Z,1029.43
2018-02-25T02:25:05.776Z,1029.44
2018-02-25T02:26:06.283Z,1029.48
2018-02-25T02:27:06.599Z,1029.44
2018-02-25T02:28:07.013Z,1029.47
2018-02-25T02:29:07.426Z,1029.48
2018-02-25T02:30:07.843Z,1029.50
2018-02-25T02:31:08.257Z,1029.48
2018-02-25T02:32:08.674Z,1029.46
2018-02-25T02:33:09.088Z,1029.45
2018-02-25T02:34:09.505Z,1029.48
2018-02-25T02:35:09.913Z,1029.47
2018-02-25T02:36:10.326Z,1029.46
2018-02-25T02:37:10.745Z,1029.48
2018-02-25T02:38:11.158Z,1029.46
2018-02-25T02:39:11.569Z,1029.44
2018-02-25T02:40:11.990Z,1029.47
2018-02-25T02:41:12.401Z,1029.45
2018-02-25T02:42:12.818Z,1029.43
2018-02-25T02:43:13.225Z,1029.44
2018-02-25T02:44:13.636Z,1029.44
2018-02-25T02:45:14.051Z,1029.44
2018-02-25T02:46:14.463Z,1029.42
2018-02-25T02:47:14.883Z,1029.44
2018-02-25T02:48:15.292Z,1029.42
2018-02-25T02:49:15.705Z,1029.44
2018-02-25T02:50:16.119Z,1029.45
2018-02-25T02:51:16.531Z,1029.50
2018-02-25T02:52:16.947Z,1029.47
2018-02-25T02:53:17.363Z,1029.48
2018-02-25T02:54:17.775Z,1029.50
2018-02-25T02:55:18.197Z,1029.53
2018-02-25T02:56:18.607Z,1029.53
2018-02-25T02:57:19.019Z,1029.49
2018-02-25T02:58:19.434Z,1029.49
2018-02-25T02:59:19.853Z,1029.49
2018-02-25T03:00:20.256Z,1029.50
2018-02-25T03:01:20.673Z,1029.51
2018-02-25T03:02:21.091Z,1029.49
2018-02-25T03:03:21.503Z,1029.51
2018-02-25T03:04:21.910Z,1029.52
2018-02-25T03:05:22.326Z,1029.54
2018-02-25T03:06:22.740Z,1029.50
2018-02-25T03:07:23.152Z,1029.55
2018-02-25T03:08:23.564Z,1029.56
2018-02-25T03:09:23.978Z,1029.54
2018-02-25T03:10:24.404Z,1029.55
2018-02-25T03:11:24.806Z,1029.54
2018-02-25T03:12:25.218Z,1029.53
2018-02-25T03:13:25.643Z,1029.50
2018-02-25T03:14:26.049Z,1029.53
2018-02-25T03:15:26.466Z,1029.50
2018-02-25T03:16:26.883Z,1029.56
2018-02-25T03:17:27.291Z,1029.51
2018-02-25T03:18:27.711Z,1029.55
2018-02-25T03:19:28.118Z,1029.53
2018-02-25T03:20:28.530Z,1029.54
2018-02-25T03:21:28.946Z,1029.55
2018-02-25T03:22:29.359Z,1029.54
2018-02-25T03:23:29.769Z,1029.48
2018-02-25T03:24:30.181Z,1029.49
2018-02-25T03:25:30.596Z,1029.47
2018-02-25T03:26:31.012Z,1029.44
2018-02-25T03:27:31.422Z,1029.46
2018-02-25T03:28:31.835Z,1029.47
2018-02-25T03:29:32.250Z,1029.46
2018-02-25T03:30:32.666Z,1029.45
2018-02-25T03:31:33.079Z,1029.39
2018-02-25T03:32:33.494Z,1029.44
2018-02-25T03:33:33.912Z,1029.44
2018-02-25T03:34:34.320Z,1029.41
2018-02-25T03:35:34.735Z,1029.42
2018-02-25T03:36:35.149Z,1029.45
2018-02-25T03:37:35.559Z,1029.43
2018-02-25T03:38:35.970Z,1029.45
2018-02-25T03:39:36.384Z,1029.43
2018-02-25T03:40:36.794Z,1029.50
2018-02-25T03:41:37.229Z,1029.48
2018-02-25T03:42:37.624Z,1029.46
2018-02-25T03:43:38.044Z,1029.51
2018-02-25T03:44:38.456Z,1029.49
2018-02-25T03:45:38.863Z,1029.49
2018-02-25T03:46:39.295Z,1029.48
2018-02-25T03:47:39.689Z,1029.47
2018-02-25T03:48:40.104Z,1029.45
2018-02-25T03:49:40.518Z,1029.44
2018-02-25T03:50:40.939Z,1029.46
2018-02-25T03:51:41.351Z,1029.45
2018-02-25T03:52:41.841Z,1029.41
2018-02-25T03:53:42.173Z,1029.42
2018-02-25T03:54:42.589Z,1029.44
2018-02-25T03:55:43.000Z,1029.40
2018-02-25T03:56:43.414Z,1029.39
2018-02-25T03:57:43.831Z,1029.40
2018-02-25T03:58:44.269Z,1029.41
2018-02-25T03:59:44.654Z,1029.36
2018-02-25T04:00:45.070Z,1029.33
2018-02-25T04:01:45.481Z,1029.35
2018-02-25T04:02:45.895Z,1029.36
2018-02-25T04:03:46.311Z,1029.35
2018-02-25T04:04:46.769Z,1029.37
2018-02-25T04:05:47.141Z,1029.42
2018-02-25T04:06:47.559Z,1029.41
2018-02-25T04:07:47.965Z,1029.38
2018-02-25T04:08:48.382Z,1029.36
2018-02-25T04:09:48.792Z,1029.36
2018-02-25T04:10:49.206Z,1029.39
2018-02-25T04:11:49.622Z,1029.37
2018-02-25T04:12:50.037Z,1029.36
2018-02-25T04:13:50.459Z,1029.37
2018-02-25T04:14:50.864Z,1029.38
2018-02-25T04:15:51.276Z,1029.39
2018-02-25T04:16:51.684Z,1029.42
2018-02-25T04:17:52.104Z,1029.39
2018-02-25T04:18:52.514Z,1029.37
2018-02-25T04:19:52.932Z,1029.36
2018-02-25T04:20:53.343Z,1029.35
2018-02-25T04:21:53.759Z,1029.38
2018-02-25T04:22:54.168Z,1029.38
2018-02-25T04:23:54.582Z,1029.34
2018-02-25T04:24:55.000Z,1029.38
2018-02-25T04:25:55.415Z,1029.36
2018-02-25T04:26:55.829Z,1029.39
2018-02-25T04:27:56.241Z,1029.38
2018-02-25T04:28:56.659Z,1029.35
2018-02-25T04:29:57.072Z,1029.37
2018-02-25T04:30:57.479Z,1029.33
2018-02-25T04:31:57.894Z,1029.34
2018-02-25T04:32:58.311Z,1029.31
2018-02-25T04:33:58.726Z,1029.31
2018-02-25T04:34:59.149Z,1029.33
2018-02-25T04:35:59.546Z,1029.34
2018-02-25T04:36:59.961Z,1029.34
2018-02-25T04:38:00.375Z,1029.30
2018-02-25T04:39:00.810Z,1029.32
2018-02-25T04:40:01.202Z,1029.34
2018-02-25T04:41:01.616Z,1029.35
2018-02-25T04:42:02.041Z,1029.31
2018-02-25T04:43:02.454Z,1029.33
2018-02-25T04:44:02.856Z,1029.29
2018-02-25T04:45:03.270Z,1029.33
2018-02-25T04:46:03.688Z,1029.31
2018-02-25T04:47:04.099Z,1029.33
2018-02-25T04:48:04.515Z,1029.32
2018-02-25T04:49:04.926Z,1029.31
2018-02-25T04:50:05.339Z,1029.32
2018-02-25T04:51:05.755Z,1029.32
2018-02-25T04:52:06.171Z,1029.31
2018-02-25T04:53:06.581Z,1029.32
2018-02-25T04:54:06.995Z,1029.30
2018-02-25T04:55:07.410Z,1029.29
2018-02-25T04:56:07.833Z,1029.32
2018-02-25T04:57:08.241Z,1029.27
2018-02-25T04:58:08.659Z,1029.30
2018-02-25T04:59:09.092Z,1029.30
2018-02-25T05:00:09.484Z,1029.30
2018-02-25T05:01:09.943Z,1029.28
2018-02-25T05:02:10.307Z,1029.33
2018-02-25T05:03:10.723Z,1029.30
2018-02-25T05:04:11.139Z,1029.25
2018-02-25T05:05:11.546Z,1029.32
2018-02-25T05:06:11.961Z,1029.31
2018-02-25T05:07:12.377Z,1029.25
2018-02-25T05:08:12.784Z,1029.30
2018-02-25T05:09:13.202Z,1029.29
2018-02-25T05:10:13.615Z,1029.28
2018-02-25T05:11:14.032Z,1029.24
2018-02-25T05:12:14.441Z,1029.28
2018-02-25T05:13:14.857Z,1029.28
2018-02-25T05:14:15.274Z,1029.25
2018-02-25T05:15:15.683Z,1029.29
2018-02-25T05:16:16.094Z,1029.24
2018-02-25T05:17:16.508Z,1029.22
2018-02-25T05:18:16.927Z,1029.24
2018-02-25T05:19:17.344Z,1029.21
2018-02-25T05:20:17.745Z,1029.21
2018-02-25T05:21:18.174Z,1029.24
2018-02-25T05:22:18.620Z,1029.25
2018-02-25T05:23:18.989Z,1029.27
2018-02-25T05:24:19.407Z,1029.29
2018-02-25T05:25:19.817Z,1029.32
2018-02-25T05:26:20.230Z,1029.34
2018-02-25T05:27:20.644Z,1029.35
2018-02-25T05:28:21.057Z,1029.38
2018-02-25T05:29:21.472Z,1029.39
2018-02-25T05:30:21.885Z,1029.37
2018-02-25T05:31:22.306Z,1029.44
2018-02-25T05:32:22.714Z,1029.44
2018-02-25T05:33:23.124Z,1029.47
2018-02-25T05:34:23.539Z,1029.46
2018-02-25T05:35:23.972Z,1029.47
2018-02-25T05:36:24.377Z,1029.47
2018-02-25T05:37:24.804Z,1029.53
2018-02-25T05:38:25.197Z,1029.51
2018-02-25T05:39:25.603Z,1029.53
2018-02-25T05:40:26.018Z,1029.53
2018-02-25T05:41:26.456Z,1029.53
2018-02-25T05:42:26.853Z,1029.51
2018-02-25T05:43:27.264Z,1029.58
2018-02-25T05:44:27.669Z,1029.54
2018-02-25T05:45:28.083Z,1029.56
2018-02-25T05:46:28.497Z,1029.56
2018-02-25T05:47:28.911Z,1029.56
2018-02-25T05:48:29.322Z,1029.60
2018-02-25T05:49:29.737Z,1029.55
2018-02-25T05:50:30.160Z,1029.59
2018-02-25T05:51:30.577Z,1029.57
2018-02-25T05:52:30.973Z,1029.61
2018-02-25T05:53:31.390Z,1029.62
2018-02-25T05:54:31.805Z,1029.60
2018-02-25T05:55:32.223Z,1029.60
2018-02-25T05:56:32.628Z,1029.61
2018-02-25T05:57:33.057Z,1029.60
2018-02-25T05:58:33.452Z,1029.59
2018-02-25T05:59:33.868Z,1029.59
2018-02-25T06:00:34.371Z,1029.59
2018-02-25T06:01:34.697Z,1029.58
2018-02-25T06:02:35.112Z,1029.56
2018-02-25T06:03:35.525Z,1029.58
2018-02-25T06:04:35.943Z,1029.56
2018-02-25T06:05:36.461Z,1029.60
2018-02-25T06:06:36.768Z,1029.58
2018-02-25T06:07:37.190Z,1029.58
2018-02-25T06:08:37.607Z,1029.64
2018-02-25T06:09:38.012Z,1029.63
2018-02-25T06:10:38.414Z,1029.63
2018-02-25T06:11:38.836Z,1029.63
2018-02-25T06:12:39.316Z,1029.65
2018-02-25T06:13:39.662Z,1029.60
2018-02-25T06:14:40.076Z,1029.63
2018-02-25T06:15:40.492Z,1029.64
2018-02-25T06:16:40.902Z,1029.65
2018-02-25T06:17:41.306Z,1029.65
2018-02-25T06:18:41.791Z,1029.69
2018-02-25T06:19:42.147Z,1029.68
2018-02-25T06:20:42.548Z,1029.66
2018-02-25T06:21:42.960Z,1029.72
2018-02-25T06:22:43.381Z,1029.72
2018-02-25T06:23:43.791Z,1029.72
2018-02-25T06:24:44.214Z,1029.72
2018-02-25T06:25:44.616Z,1029.71
2018-02-25T06:26:45.030Z,1029.72
2018-02-25T06:27:45.440Z,1029.71
2018-02-25T06:28:45.856Z,1029.71
2018-02-25T06:29:46.262Z,1029.75
2018-02-25T06:30:46.690Z,1029.73
2018-02-25T06:31:47.091Z,1029.74
2018-02-25T06:32:47.507Z,1029.74
2018-02-25T06:33:47.926Z,1029.76
2018-02-25T06:34:48.336Z,1029.72
2018-02-25T06:35:48.747Z,1029.72
2018-02-25T06:36:49.163Z,1029.71
2018-02-25T06:37:49.575Z,1029.72
2018-02-25T06:38:49.987Z,1029.70
2018-02-25T06:39:50.405Z,1029.69
2018-02-25T06:40:50.821Z,1029.69
2018-02-25T06:41:51.235Z,1029.70
2018-02-25T06:42:51.642Z,1029.69
2018-02-25T06:43:52.060Z,1029.67
2018-02-25T06:44:52.472Z,1029.63
2018-02-25T06:45:52.886Z,1029.64
2018-02-25T06:46:53.308Z,1029.63
2018-02-25T06:47:53.735Z,1029.63
2018-02-25T06:48:54.123Z,1029.62
2018-02-25T06:49:54.541Z,1029.62
2018-02-25T06:50:54.968Z,1029.59
2018-02-25T06:51:55.364Z,1029.65
2018-02-25T06:52:55.777Z,1029.64
2018-02-25T06:53:56.186Z,1029.65
2018-02-25T06:54:56.623Z,1029.62
2018-02-25T06:55:57.024Z,1029.60
2018-02-25T06:56:57.428Z,1029.64
2018-02-25T06:57:57.848Z,1029.67
2018-02-25T06:58:58.258Z,1029.63
2018-02-25T06:59:58.674Z,1029.66
2018-02-25T07:00:59.089Z,1029.61
2018-02-25T07:01:59.497Z,1029.62
2018-02-25T07:02:59.914Z,1029.62
2018-02-25T07:04:00.326Z,1029.68
2018-02-25T07:05:00.736Z,1029.66
2018-02-25T07:06:01.173Z,1029.70
2018-02-25T07:07:01.573Z,1029.67
2018-02-25T07:08:01.985Z,1029.67
2018-02-25T07:09:02.400Z,1029.66
2018-02-25T07:10:02.811Z,1029.66
2018-02-25T07:11:03.225Z,1029.70
2018-02-25T07:12:03.637Z,1029.68
2018-02-25T07:13:04.054Z,1029.70
2018-02-25T07:14:04.462Z,1029.70
2018-02-25T07:15:04.881Z,1029.67
2018-02-25T07:16:05.295Z,1029.67
2018-02-25T07:17:05.708Z,1029.65
2018-02-25T07:18:06.125Z,1029.67
2018-02-25T07:19:06.533Z,1029.69
2018-02-25T07:20:06.951Z,1029.73
2018-02-25T07:21:07.362Z,1029.73
2018-02-25T07:22:07.822Z,1029.72
2018-02-25T07:23:08.191Z,1029.71
2018-02-25T07:24:08.613Z,1029.68
2018-02-25T07:25:09.020Z,1029.67
2018-02-25T07:26:09.434Z,1029.69
2018-02-25T07:27:09.843Z,1029.72
2018-02-25T07:28:10.257Z,1029.73
2018-02-25T07:29:10.671Z,1029.72
2018-02-25T07:30:11.086Z,1029.70
2018-02-25T07:31:11.499Z,1029.67
2018-02-25T07:32:11.915Z,1029.68
2018-02-25T07:33:12.328Z,1029.69
2018-02-25T07:34:12.750Z,1029.70
2018-02-25T07:35:13.157Z,1029.69
2018-02-25T07:36:13.569Z,1029.72
2018-02-25T07:37:13.982Z,1029.76
2018-02-25T07:38:14.462Z,1029.74
2018-02-25T07:39:14.815Z,1029.77
2018-02-25T07:40:15.232Z,1029.73
2018-02-25T07:41:15.642Z,1029.75
2018-02-25T07:42:16.099Z,1029.73
2018-02-25T07:43:16.472Z,1029.75
2018-02-25T07:44:16.882Z,1029.71
2018-02-25T07:45:17.304Z,1029.72
2018-02-25T07:46:17.713Z,1029.72
2018-02-25T07:47:18.128Z,1029.75
2018-02-25T07:48:18.554Z,1029.69
2018-02-25T07:49:18.957Z,1029.68
2018-02-25T07:50:19.373Z,1029.68
2018-02-25T07:51:19.779Z,1029.67
2018-02-25T07:52:20.200Z,1029.64
2018-02-25T07:53:20.615Z,1029.67
2018-02-25T07:54:21.028Z,1029.63
2018-02-25T07:55:21.451Z,1029.65
2018-02-25T07:56:21.864Z,1029.65
2018-02-25T07:57:22.272Z,1029.64
2018-02-25T07:58:22.685Z,1029.66
2018-02-25T07:59:23.101Z,1029.61
2018-02-25T08:00:23.522Z,1029.64
2018-02-25T08:01:23.935Z,1029.63
2018-02-25T08:02:24.345Z,1029.63
2018-02-25T08:03:24.787Z,1029.65
2018-02-25T08:04:25.175Z,1029.68
2018-02-25T08:05:25.623Z,1029.66
2018-02-25T08:06:26.222Z,1029.67
2018-02-25T08:07:26.417Z,1029.64
2018-02-25T08:08:26.909Z,1029.62
2018-02-25T08:09:27.284Z,1029.62
2018-02-25T08:10:27.706Z,1029.60
2018-02-25T08:11:28.100Z,1029.62
2018-02-25T08:12:28.496Z,1029.65
2018-02-25T08:13:28.935Z,1029.66
2018-02-25T08:14:29.349Z,1029.68
2018-02-25T08:15:29.781Z,1029.66
2018-02-25T08:16:30.174Z,1029.67
2018-02-25T08:17:30.616Z,1029.63
2018-02-25T08:18:31.031Z,1029.67
2018-02-25T08:19:31.468Z,1029.63
2018-02-25T08:20:31.877Z,1029.66
2018-02-25T08:21:32.280Z,1029.69
2018-02-25T08:22:32.711Z,1029.72
2018-02-25T08:23:33.089Z,1029.71
2018-02-25T08:24:33.525Z,1029.70
2018-02-25T08:25:33.941Z,1029.72
2018-02-25T08:26:34.387Z,1029.70
2018-02-25T08:27:34.794Z,1029.69
2018-02-25T08:28:35.189Z,1029.68
2018-02-25T08:29:35.585Z,1029.71
2018-02-25T08:30:36.029Z,1029.69
2018-02-25T08:31:36.428Z,1029.68
2018-02-25T08:32:36.808Z,1029.69
2018-02-25T08:33:37.247Z,1029.66
2018-02-25T08:34:37.657Z,1029.69
2018-02-25T08:35:38.070Z,1029.63
2018-02-25T08:36:38.501Z,1029.67
2018-02-25T08:37:38.919Z,1029.69
2018-02-25T08:38:39.302Z,1029.68
2018-02-25T08:39:39.804Z,1029.69
2018-02-25T08:40:40.148Z,1029.62
2018-02-25T08:41:40.574Z,1029.65
2018-02-25T08:42:40.994Z,1029.70
2018-02-25T08:43:41.390Z,1029.66
2018-02-25T08:44:41.800Z,1029.69
2018-02-25T08:45:42.214Z,1029.68
2018-02-25T08:46:42.646Z,1029.64
2018-02-25T08:47:43.063Z,1029.66
2018-02-25T08:48:43.486Z,1029.71
2018-02-25T08:49:43.899Z,1029.66
2018-02-25T08:50:44.304Z,1029.70
2018-02-25T08:51:44.748Z,1029.71
2018-02-25T08:52:45.160Z,1029.70
2018-02-25T08:53:45.561Z,1029.73
2018-02-25T08:54:45.972Z,1029.67
2018-02-25T08:55:46.400Z,1029.65
2018-02-25T08:56:46.819Z,1029.66
2018-02-25T08:57:47.219Z,1029.61
2018-02-25T08:58:47.632Z,1029.64
2018-02-25T08:59:48.059Z,1029.67
2018-02-25T09:00:48.467Z,1029.69
2018-02-25T09:01:48.888Z,1029.65
2018-02-25T09:02:49.303Z,1029.67
2018-02-25T09:03:49.781Z,1029.61
2018-02-25T09:04:50.166Z,1029.64
2018-02-25T09:05:50.573Z,1029.64
2018-02-25T09:06:51.015Z,1029.67
2018-02-25T09:07:51.429Z,1029.62
2018-02-25T09:08:51.848Z,1029.63
2018-02-25T09:09:52.282Z,1029.65
2018-02-25T09:10:52.700Z,1029.64
2018-02-25T09:11:53.112Z,1029.61
2018-02-25T09:12:53.548Z,1029.61
2018-02-25T09:13:53.966Z,1029.65
2018-02-25T09:14:54.402Z,1029.66
2018-02-25T09:15:54.812Z,1029.62
2018-02-25T09:16:55.234Z,1029.59
2018-02-25T09:17:55.655Z,1029.62
2018-02-25T09:18:56.102Z,1029.63
2018-02-25T09:19:56.543Z,1029.63
2018-02-25T09:20:56.933Z,1029.60
2018-02-25T09:21:57.359Z,1029.57
2018-02-25T09:22:57.807Z,1029.55
2018-02-25T09:23:58.212Z,1029.55
2018-02-25T09:24:58.626Z,1029.56
2018-02-25T09:25:59.064Z,1029.55
2018-02-25T09:26:59.482Z,1029.53
2018-02-25T09:27:59.915Z,1029.51
2018-02-25T09:29:00.347Z,1029.49
2018-02-25T09:30:00.765Z,1029.52
2018-02-25T09:31:01.192Z,1029.49
2018-02-25T09:32:01.637Z,1029.51
2018-02-25T09:33:02.057Z,1029.47
2018-02-25T09:34:02.482Z,1029.52
2018-02-25T09:35:02.899Z,1029.41
2018-02-25T09:36:03.310Z,1029.43
2018-02-25T09:37:03.752Z,1029.49
2018-02-25T09:38:04.169Z,1029.44
2018-02-25T09:39:04.591Z,1029.40
2018-02-25T09:40:05.016Z,1029.40
2018-02-25T09:41:05.454Z,1029.45
2018-02-25T09:42:05.895Z,1029.40
2018-02-25T09:43:06.314Z,1029.37
2018-02-25T09:44:06.733Z,1029.36
2018-02-25T09:45:07.156Z,1029.39
2018-02-25T09:46:07.579Z,1029.40
2018-02-25T09:47:08.004Z,1029.29
2018-02-25T09:48:08.436Z,1029.31
2018-02-25T09:49:08.865Z,1029.34
2018-02-25T09:50:09.308Z,1029.34
2018-02-25T09:51:09.811Z,1029.26
2018-02-25T09:52:10.157Z,1029.24
2018-02-25T09:53:10.588Z,1029.30
2018-02-25T09:54:11.104Z,1029.27
2018-02-25T09:55:11.438Z,1029.29
2018-02-25T09:56:11.879Z,1029.21
2018-02-25T09:57:12.331Z,1029.19
2018-02-25T09:58:12.755Z,1029.15
2018-02-25T09:59:13.171Z,1029.18
2018-02-25T10:00:13.605Z,1029.12
2018-02-25T10:01:14.015Z,1029.20
2018-02-25T10:02:14.434Z,1029.15
2018-02-25T10:03:14.890Z,1029.10
2018-02-25T10:04:15.287Z,1029.15
2018-02-25T10:05:15.789Z,1029.13
2018-02-25T10:06:16.146Z,1029.13
2018-02-25T10:07:16.571Z,1029.08
2018-02-25T10:08:17.033Z,1029.07
2018-02-25T10:09:17.430Z,1029.05
2018-02-25T10:10:17.867Z,1029.03
2018-02-25T10:11:18.285Z,1029.02
2018-02-25T10:12:18.705Z,1029.00
2018-02-25T10:13:19.135Z,1028.96
2018-02-25T10:14:19.564Z,1028.98
2018-02-25T10:15:20.000Z,1028.91
2018-02-25T10:16:20.410Z,1028.89
2018-02-25T10:17:20.838Z,1028.89
2018-02-25T10:18:21.285Z,1028.93
2018-02-25T10:19:21.706Z,1028.93
2018-02-25T10:20:22.122Z,1028.90
2018-02-25T10:21:22.544Z,1028.90
2018-02-25T10:22:22.968Z,1028.87
2018-02-25T10:23:23.406Z,1028.89
2018-02-25T10:24:23.815Z,1028.93
2018-02-25T10:25:24.248Z,1028.86
2018-02-25T10:26:24.678Z,1028.89
2018-02-25T10:27:25.102Z,1028.86
2018-02-25T10:28:25.577Z,1028.83
2018-02-25T10:29:25.974Z,1028.81
2018-02-25T10:30:26.393Z,1028.84
2018-02-25T10:31:26.810Z,1028.81
2018-02-25T10:32:27.236Z,1028.81
2018-02-25T10:33:27.666Z,1028.84
2018-02-25T10:34:28.114Z,1028.83
2018-02-25T10:35:28.522Z,1028.87
2018-02-25T10:36:28.955Z,1028.81
2018-02-25T10:37:29.402Z,1028.84
2018-02-25T10:38:29.819Z,1028.79
2018-02-25T10:39:30.234Z,1028.77
2018-02-25T10:40:30.672Z,1028.72
2018-02-25T10:41:31.108Z,1028.75
2018-02-25T10:42:31.523Z,1028.72
2018-02-25T10:43:31.942Z,1028.73
2018-02-25T10:44:32.382Z,1028.70
2018-02-25T10:45:32.856Z,1028.69
2018-02-25T10:46:33.270Z,1028.65
2018-02-25T10:47:33.670Z,1028.67
2018-02-25T10:48:34.104Z,1028.65
2018-02-25T10:49:34.529Z,1028.64
2018-02-25T10:50:34.952Z,1028.67
2018-02-25T10:51:35.391Z,1028.65
2018-02-25T10:52:35.815Z,1028.63
2018-02-25T10:53:36.258Z,1028.62
2018-02-25T10:54:36.680Z,1028.60
2018-02-25T10:55:37.111Z,1028.55
2018-02-25T10:56:37.540Z,1028.54
2018-02-25T10:57:37.971Z,1028.55
2018-02-25T10:58:38.401Z,1028.54
2018-02-25T10:59:38.835Z,1028.51
2018-02-25T11:00:39.272Z,1028.54
2018-02-25T11:01:39.704Z,1028.51
2018-02-25T11:02:40.148Z,1028.52
2018-02-25T11:03:40.557Z,1028.53
2018-02-25T11:04:40.989Z,1028.50
2018-02-25T11:05:41.428Z,1028.47
2018-02-25T11:06:41.852Z,1028.45
2018-02-25T11:07:42.295Z,1028.50
2018-02-25T11:08:42.729Z,1028.45
2018-02-25T11:09:43.151Z,1028.43
2018-02-25T11:10:43.580Z,1028.46
2018-02-25T11:11:44.018Z,1028.47
2018-02-25T11:12:44.497Z,1028.41
2018-02-25T11:13:44.895Z,1028.37
2018-02-25T11:14:45.326Z,1028.39
2018-02-25T11:15:45.753Z,1028.34
2018-02-25T11:16:46.190Z,1028.33
2018-02-25T11:17:46.624Z,1028.35
2018-02-25T11:18:47.064Z,1028.30
2018-02-25T11:19:47.494Z,1028.28
2018-02-25T11:20:47.949Z,1028.33
2018-02-25T11:21:48.365Z,1028.30
2018-02-25T11:22:48.803Z,1028.28
2018-02-25T11:23:49.232Z,1028.27
2018-02-25T11:24:49.681Z,1028.27
2018-02-25T11:25:50.113Z,1028.32
2018-02-25T11:26:50.628Z,1028.32
2018-02-25T11:27:50.977Z,1028.26
2018-02-25T11:28:51.415Z,1028.21
2018-02-25T11:29:51.856Z,1028.20
2018-02-25T11:30:52.390Z,1028.18
2018-02-25T11:31:52.731Z,1028.20
2018-02-25T11:32:53.156Z,1028.17
2018-02-25T11:33:53.593Z,1028.11
2018-02-25T11:34:54.055Z,1028.14
2018-02-25T11:35:54.466Z,1028.13
2018-02-25T11:36:54.910Z,1028.08
2018-02-25T11:37:55.340Z,1028.11
2018-02-25T11:38:55.818Z,1028.05
2018-02-25T11:39:56.226Z,1028.09
2018-02-25T11:40:56.652Z,1028.15
2018-02-25T11:41:57.104Z,1028.11
2018-02-25T11:42:57.531Z,1028.10
2018-02-25T11:43:57.947Z,1028.06
2018-02-25T11:44:58.398Z,1028.08
2018-02-25T11:45:58.828Z,1028.03
2018-02-25T11:46:59.274Z,1028.07
2018-02-25T11:47:59.709Z,1027.99
2018-02-25T11:49:00.134Z,1028.00
2018-02-25T11:50:00.566Z,1027.98
2018-02-25T11:51:01.010Z,1027.99
2018-02-25T11:52:01.444Z,1027.99
2018-02-25T11:53:01.874Z,1027.91
2018-02-25T11:54:02.334Z,1028.00
2018-02-25T11:55:02.776Z,1027.94
2018-02-25T11:56:03.179Z,1027.95
2018-02-25T11:57:03.613Z,1027.94
2018-02-25T11:58:04.049Z,1027.98
2018-02-25T11:59:04.472Z,1027.93
2018-02-25T12:00:04.921Z,1027.96
2018-02-25T12:01:05.379Z,1027.97
2018-02-25T12:02:05.791Z,1027.95
2018-02-25T12:03:06.208Z,1027.95
2018-02-25T12:04:06.619Z,1027.95
2018-02-25T12:05:07.047Z,1027.92
2018-02-25T12:06:07.488Z,1027.93
2018-02-25T12:07:07.945Z,1027.91
2018-02-25T12:08:08.323Z,1027.93
2018-02-25T12:09:08.746Z,1027.92
2018-02-25T12:10:09.181Z,1027.90